Time;durP1;ratioP1;P1;durP2;ratioP2;P2;SDS_P1;SDS_P2;PMS_P1;PMS_P2;Temp;Humidity;BMP_temperature;BMP_pressure;BME280_temperature;BME280_humidity;BME280_pressure;Samples;Min_cycle;Max_cycle;Signal;HPM_P1;HPM_P2
2023/10/02 00:00:39;;;;;;;;;;;17.30;99.90;;;;;;5077092;28;19928;-31
2023/10/02 00:03:09;;;;;;;;;;;17.30;99.90;;;;;;5079888;28;19964;-31
2023/10/02 00:05:51;;;;;;;;;;;17.30;99.90;;;;;;5090664;28;19924;-30
2023/10/02 00:08:31;;;;;;;;;;;17.30;99.90;;;;;;5088054;28;19924;-31
2023/10/02 00:11:05;;;;;;;;;;;17.20;99.90;;;;;;5077192;28;20395;-31
2023/10/02 00:13:32;;;;;;;;;;;17.20;99.90;;;;;;5077695;28;19928;-34
2023/10/02 00:15:59;;;;;;;;;;;17.20;99.90;;;;;;5076378;28;19924;-31
2023/10/02 00:18:27;;;;;;;;;;;17.20;99.90;;;;;;5088921;28;19928;-31
2023/10/02 00:21:17;;;;;;;;;;;17.10;99.90;;;;;;5082455;28;20402;-33
2023/10/02 00:23:59;;;;;;;;;;;17.10;99.90;;;;;;5082890;28;19924;-31
2023/10/02 00:26:26;;;;;;;;;;;17.10;99.90;;;;;;5086720;28;20547;-31
2023/10/02 00:28:53;;;;;;;;;;;17.10;99.90;;;;;;5082316;28;19978;-32
2023/10/02 00:31:33;;;;;;;;;;;17.10;99.90;;;;;;5077973;28;19970;-31
2023/10/02 00:33:59;;;;;;;;;;;17.10;99.90;;;;;;5080576;28;19970;-32
2023/10/02 00:36:29;;;;;;;;;;;17.10;99.90;;;;;;5080696;28;20007;-32
2023/10/02 00:39:02;;;;;;;;;;;17.10;99.90;;;;;;5086768;28;19927;-31
2023/10/02 00:41:40;;;;;;;;;;;17.10;99.90;;;;;;5109485;28;19933;-32
2023/10/02 00:44:06;;;;;;;;;;;17.10;99.90;;;;;;5091744;28;19930;-31
2023/10/02 00:46:42;;;;;;;;;;;17.10;99.90;;;;;;5096127;28;19928;-31
2023/10/02 00:49:25;;;;;;;;;;;17.10;99.90;;;;;;5094879;28;19924;-33
2023/10/02 00:52:00;;;;;;;;;;;17.10;99.90;;;;;;5075764;28;19925;-30
2023/10/02 00:54:27;;;;;;;;;;;17.10;99.90;;;;;;5094656;28;19931;-30
2023/10/02 00:56:54;;;;;;;;;;;17.10;99.90;;;;;;5114280;28;20381;-32
2023/10/02 00:59:23;;;;;;;;;;;17.10;99.90;;;;;;5112569;28;20019;-30
2023/10/02 01:01:49;;;;;;;;;;;17.10;99.90;;;;;;5103649;28;19923;-30
2023/10/02 01:04:24;;;;;;;;;;;17.10;99.90;;;;;;5091745;28;20383;-32
2023/10/02 01:07:04;;;;;;;;;;;17.10;99.90;;;;;;5097713;28;20314;-30
2023/10/02 01:09:33;;;;;;;;;;;17.20;99.90;;;;;;5077918;28;19924;-30
2023/10/02 01:12:00;;;;;;;;;;;17.10;99.90;;;;;;5086521;28;19964;-30
2023/10/02 01:14:40;;;;;;;;;;;17.10;99.90;;;;;;5082704;28;19924;-30
2023/10/02 01:17:07;;;;;;;;;;;17.20;99.90;;;;;;5093703;28;20012;-30
2023/10/02 01:19:52;;;;;;;;;;;17.20;99.90;;;;;;5079296;28;20371;-30
2023/10/02 01:22:26;;;;;;;;;;;17.20;99.90;;;;;;5115700;27;19924;-30
2023/10/02 01:25:06;;;;;;;;;;;17.20;99.90;;;;;;5136811;27;20350;-31
2023/10/02 01:27:40;;;;;;;;;;;17.20;99.90;;;;;;5083475;28;19928;-30
2023/10/02 01:30:15;;;;;;;;;;;17.20;99.90;;;;;;5073509;28;19924;-30
2023/10/02 01:33:14;;;;;;;;;;;17.20;99.90;;;;;;5090054;28;20595;-30
2023/10/02 01:35:46;;;;;;;;;;;17.20;99.90;;;;;;5093161;28;19928;-30
2023/10/02 01:38:13;;;;;;;;;;;17.20;99.90;;;;;;5081951;28;19963;-30
2023/10/02 01:40:43;;;;;;;;;;;17.20;99.90;;;;;;5079556;28;20030;-31
2023/10/02 01:43:16;;;;;;;;;;;17.20;99.90;;;;;;5073496;28;19924;-31
2023/10/02 01:45:43;;;;;;;;;;;17.20;99.90;;;;;;5084801;28;20415;-32
2023/10/02 01:48:12;;;;;;;;;;;17.20;99.90;;;;;;5091855;28;20536;-30
2023/10/02 01:50:39;;;;;;;;;;;17.20;99.90;;;;;;5077201;28;19978;-30
2023/10/02 01:53:06;;;;;;;;;;;17.20;99.90;;;;;;5074208;28;19924;-30
2023/10/02 01:55:36;;;;;;;;;;;17.20;99.90;;;;;;5082587;28;20011;-32
2023/10/02 01:58:17;;;;;;;;;;;17.30;99.90;;;;;;5076080;28;19935;-30
2023/10/02 02:00:45;;;;;;;;;;;17.20;99.90;;;;;;5104835;28;19924;-31
2023/10/02 02:03:15;;;;;;;;;;;17.30;99.90;;;;;;5080075;28;19928;-30
2023/10/02 02:05:44;;;;;;;;;;;17.30;99.90;;;;;;5100904;28;19969;-32
2023/10/02 02:08:22;;;;;;;;;;;17.30;99.90;;;;;;5082828;28;19936;-30
2023/10/02 02:10:50;;;;;;;;;;;17.30;99.90;;;;;;5076600;28;20016;-32
2023/10/02 02:13:18;;;;;;;;;;;17.30;99.90;;;;;;5083061;28;19925;-30
2023/10/02 02:15:45;;;;;;;;;;;17.30;99.90;;;;;;5076611;28;20367;-30
2023/10/02 02:18:14;;;;;;;;;;;17.30;99.90;;;;;;5073426;28;19932;-30
2023/10/02 02:20:57;;;;;;;;;;;17.30;99.90;;;;;;5082977;28;20294;-30
2023/10/02 02:23:26;;;;;;;;;;;17.30;99.90;;;;;;5091619;28;19925;-31
2023/10/02 02:25:53;;;;;;;;;;;17.30;99.90;;;;;;5083081;28;19932;-30
2023/10/02 02:28:21;;;;;;;;;;;17.30;99.90;;;;;;5099758;28;19924;-30
2023/10/02 02:30:47;;;;;;;;;;;17.30;99.90;;;;;;5076053;28;19928;-32
2023/10/02 02:33:15;;;;;;;;;;;17.30;99.90;;;;;;5093514;28;19928;-32
2023/10/02 02:35:44;;;;;;;;;;;17.30;99.90;;;;;;5100562;28;19931;-31
2023/10/02 02:38:14;;;;;;;;;;;17.30;99.90;;;;;;5082866;28;19960;-32
2023/10/02 02:40:44;;;;;;;;;;;17.20;99.90;;;;;;5073573;28;19924;-32
2023/10/02 02:43:19;;;;;;;;;;;17.30;99.90;;;;;;5077465;28;20335;-32
2023/10/02 02:45:47;;;;;;;;;;;17.20;99.90;;;;;;5091342;28;20375;-32
2023/10/02 02:48:16;;;;;;;;;;;17.20;99.90;;;;;;5088914;28;20387;-31
2023/10/02 02:50:42;;;;;;;;;;;17.20;99.90;;;;;;5089127;28;19971;-31
2023/10/02 02:53:21;;;;;;;;;;;17.20;99.90;;;;;;5100021;28;19924;-32
2023/10/02 02:55:59;;;;;;;;;;;17.20;99.90;;;;;;5092964;28;20007;-31
2023/10/02 02:58:30;;;;;;;;;;;17.20;99.90;;;;;;5126445;27;19931;-31
2023/10/02 03:00:59;;;;;;;;;;;17.20;99.90;;;;;;5086562;28;19924;-32
2023/10/02 03:03:32;;;;;;;;;;;17.10;99.90;;;;;;5113451;27;19932;-32
2023/10/02 03:05:59;;;;;;;;;;;17.10;99.90;;;;;;5075099;28;19929;-31
2023/10/02 03:08:37;;;;;;;;;;;17.10;99.90;;;;;;5088775;28;20330;-32
2023/10/02 03:11:06;;;;;;;;;;;17.10;99.90;;;;;;5079721;28;20003;-32
2023/10/02 03:13:34;;;;;;;;;;;17.10;99.90;;;;;;5090344;28;20327;-31
2023/10/02 03:16:08;;;;;;;;;;;17.10;99.90;;;;;;5110800;28;19928;-31
2023/10/02 03:18:36;;;;;;;;;;;17.10;99.90;;;;;;5093917;28;20003;-31
2023/10/02 03:21:14;;;;;;;;;;;17.10;99.90;;;;;;5087231;28;19928;-32
2023/10/02 03:23:42;;;;;;;;;;;17.00;99.90;;;;;;5111498;27;19928;-31
2023/10/02 03:26:21;;;;;;;;;;;17.00;99.90;;;;;;5109058;27;20303;-31
2023/10/02 03:28:48;;;;;;;;;;;17.00;99.90;;;;;;5078072;28;19931;-31
2023/10/02 03:31:34;;;;;;;;;;;17.00;99.90;;;;;;5090208;28;19969;-31
2023/10/02 03:34:02;;;;;;;;;;;17.00;99.90;;;;;;5084302;28;19931;-31
2023/10/02 03:36:29;;;;;;;;;;;17.00;99.90;;;;;;5075024;28;20030;-32
2023/10/02 03:38:57;;;;;;;;;;;17.00;99.90;;;;;;5090287;28;19923;-32
2023/10/02 03:41:44;;;;;;;;;;;17.00;99.90;;;;;;5092199;28;19950;-31
2023/10/02 03:44:11;;;;;;;;;;;16.90;99.90;;;;;;5078312;28;19924;-31
2023/10/02 03:46:40;;;;;;;;;;;16.90;99.90;;;;;;5119623;27;19928;-31
2023/10/02 03:49:08;;;;;;;;;;;16.80;99.90;;;;;;5120066;27;19931;-33
2023/10/02 03:51:40;;;;;;;;;;;16.80;99.90;;;;;;5072178;28;20007;-31
2023/10/02 03:54:21;;;;;;;;;;;16.80;99.90;;;;;;5077516;28;20353;-31
2023/10/02 03:56:48;;;;;;;;;;;16.80;99.90;;;;;;5070976;28;20009;-32
2023/10/02 03:59:16;;;;;;;;;;;16.70;99.90;;;;;;5091489;28;19934;-31
2023/10/02 04:01:47;;;;;;;;;;;16.70;99.90;;;;;;5083539;28;20476;-32
2023/10/02 04:04:21;;;;;;;;;;;16.70;99.90;;;;;;5089155;28;19928;-31
2023/10/02 04:06:50;;;;;;;;;;;16.70;99.90;;;;;;5104788;28;19972;-30
2023/10/02 04:09:21;;;;;;;;;;;16.60;99.90;;;;;;5107028;27;19924;-31
2023/10/02 04:11:50;;;;;;;;;;;16.60;99.90;;;;;;5093797;28;19954;-31
2023/10/02 04:14:31;;;;;;;;;;;16.60;99.90;;;;;;5073271;28;19931;-31
2023/10/02 04:17:09;;;;;;;;;;;16.60;99.90;;;;;;5080631;28;19951;-31
2023/10/02 04:19:35;;;;;;;;;;;16.50;99.90;;;;;;5075645;28;19924;-30
2023/10/02 04:22:06;;;;;;;;;;;16.60;99.90;;;;;;5076508;28;20545;-31
2023/10/02 04:24:50;;;;;;;;;;;16.50;99.90;;;;;;5075108;28;19924;-31
2023/10/02 04:27:18;;;;;;;;;;;16.50;99.90;;;;;;5075303;28;19974;-31
2023/10/02 04:30:09;;;;;;;;;;;16.50;99.90;;;;;;5085191;28;19971;-33
2023/10/02 04:32:33;;;;;;;;;;;16.50;99.90;;;;;;5095356;28;19924;-32
2023/10/02 04:35:02;;;;;;;;;;;16.50;99.90;;;;;;5079550;28;19928;-30
2023/10/02 04:37:31;;;;;;;;;;;16.50;99.90;;;;;;5108934;28;19924;-31
2023/10/02 04:40:14;;;;;;;;;;;16.50;99.90;;;;;;5079638;28;19929;-31
2023/10/02 04:45:21;;;;;;;;;;;16.40;99.90;;;;;;5084598;28;19931;-31
2023/10/02 04:47:48;;;;;;;;;;;16.40;99.90;;;;;;5081969;28;20042;-31
2023/10/02 04:53:04;;;;;;;;;;;16.30;99.90;;;;;;5091305;28;19924;-30
2023/10/02 04:55:31;;;;;;;;;;;16.30;99.90;;;;;;5093621;28;20299;-30
2023/10/02 04:58:04;;;;;;;;;;;16.30;99.90;;;;;;5085063;28;19968;-30
2023/10/02 05:00:33;;;;;;;;;;;16.20;99.90;;;;;;5094406;28;20013;-31
2023/10/02 05:03:17;;;;;;;;;;;16.20;99.90;;;;;;5090105;28;19933;-32
2023/10/02 05:05:47;;;;;;;;;;;16.20;99.90;;;;;;5120600;27;20439;-31
2023/10/02 05:08:18;;;;;;;;;;;16.20;99.90;;;;;;5093022;28;20011;-32
2023/10/02 05:10:50;;;;;;;;;;;16.20;99.90;;;;;;5093622;28;19928;-31
2023/10/02 05:13:44;;;;;;;;;;;16.20;99.90;;;;;;5095128;28;19924;-30
2023/10/02 05:16:11;;;;;;;;;;;16.20;99.90;;;;;;5100360;28;19936;-32
2023/10/02 05:18:44;;;;;;;;;;;16.10;99.90;;;;;;5109642;28;20034;-32
2023/10/02 05:21:10;;;;;;;;;;;16.10;99.90;;;;;;5094209;28;19934;-31
2023/10/02 05:23:38;;;;;;;;;;;16.10;99.90;;;;;;5094299;28;19969;-31
2023/10/02 05:26:04;;;;;;;;;;;16.10;99.90;;;;;;5093775;28;19928;-30
2023/10/02 05:28:42;;;;;;;;;;;16.10;99.90;;;;;;5091496;28;19931;-31
2023/10/02 05:31:11;;;;;;;;;;;16.10;99.90;;;;;;5110894;28;19931;-30
2023/10/02 05:33:38;;;;;;;;;;;16.00;99.90;;;;;;5112899;28;20360;-31
2023/10/02 05:36:07;;;;;;;;;;;16.00;99.90;;;;;;5090758;28;19924;-32
2023/10/02 05:38:34;;;;;;;;;;;16.00;99.90;;;;;;5095041;28;19975;-31
2023/10/02 05:41:00;;;;;;;;;;;16.00;99.90;;;;;;5094048;28;20031;-30
2023/10/02 05:43:31;;;;;;;;;;;15.90;99.90;;;;;;5093287;28;19999;-30
2023/10/02 05:45:58;;;;;;;;;;;15.90;99.90;;;;;;5083310;28;20375;-31
2023/10/02 05:48:37;;;;;;;;;;;15.90;99.90;;;;;;5090050;28;19928;-30
2023/10/02 05:51:12;;;;;;;;;;;15.90;99.90;;;;;;5112443;28;19927;-31
2023/10/02 05:53:53;;;;;;;;;;;15.90;99.90;;;;;;5112932;28;20397;-31
2023/10/02 05:56:19;;;;;;;;;;;15.90;99.90;;;;;;5093788;28;20020;-32
2023/10/02 05:58:49;;;;;;;;;;;15.90;99.90;;;;;;5111418;28;20371;-31
2023/10/02 06:01:26;;;;;;;;;;;15.90;99.90;;;;;;5100032;28;19931;-31
2023/10/02 06:03:57;;;;;;;;;;;15.90;99.90;;;;;;5124513;27;19972;-31
2023/10/02 06:06:27;;;;;;;;;;;15.90;99.90;;;;;;5092669;28;19939;-32
2023/10/02 06:08:55;;;;;;;;;;;15.90;99.90;;;;;;5092837;28;20135;-31
2023/10/02 06:11:31;;;;;;;;;;;15.90;99.90;;;;;;5074004;28;19971;-31
2023/10/02 06:13:58;;;;;;;;;;;15.90;99.90;;;;;;5072833;28;19963;-32
2023/10/02 06:16:26;;;;;;;;;;;15.90;99.90;;;;;;5084868;28;20379;-32
2023/10/02 06:19:00;;;;;;;;;;;15.90;99.90;;;;;;5092813;28;20017;-31
2023/10/02 06:21:30;;;;;;;;;;;15.90;99.90;;;;;;5091261;28;20401;-31
2023/10/02 06:23:57;;;;;;;;;;;15.90;99.90;;;;;;5093956;28;20298;-31
2023/10/02 06:26:29;;;;;;;;;;;15.90;99.90;;;;;;5093068;28;19930;-32
2023/10/02 06:29:16;;;;;;;;;;;15.90;99.90;;;;;;5093127;28;19924;-31
2023/10/02 06:31:42;;;;;;;;;;;15.90;99.90;;;;;;5126524;27;19963;-33
2023/10/02 06:34:11;;;;;;;;;;;15.90;99.90;;;;;;5092883;28;20018;-31
2023/10/02 06:36:48;;;;;;;;;;;16.00;99.90;;;;;;5092797;28;19924;-31
2023/10/02 06:39:17;;;;;;;;;;;16.00;99.90;;;;;;5092690;28;19932;-31
2023/10/02 06:41:44;;;;;;;;;;;16.00;99.90;;;;;;5090364;28;19951;-31
2023/10/02 06:44:15;;;;;;;;;;;16.10;99.90;;;;;;5093843;28;19924;-32
2023/10/02 06:46:52;;;;;;;;;;;16.10;99.90;;;;;;5072384;28;19925;-30
2023/10/02 06:49:20;;;;;;;;;;;16.10;99.90;;;;;;5093854;28;19928;-31
2023/10/02 06:51:50;;;;;;;;;;;16.20;99.90;;;;;;5093459;28;20402;-31
2023/10/02 06:54:18;;;;;;;;;;;16.20;99.90;;;;;;5093494;28;20384;-31
2023/10/02 06:56:44;;;;;;;;;;;16.20;99.90;;;;;;5089726;28;19934;-31
2023/10/02 06:59:12;;;;;;;;;;;16.20;99.90;;;;;;5073371;28;19988;-31
2023/10/02 07:02:01;;;;;;;;;;;16.30;99.90;;;;;;5071523;28;20392;-31
2023/10/02 07:04:29;;;;;;;;;;;16.30;99.90;;;;;;5075654;28;19971;-31
2023/10/02 07:07:03;;;;;;;;;;;16.40;99.90;;;;;;5072253;28;19947;-32
2023/10/02 07:09:36;;;;;;;;;;;16.40;99.90;;;;;;5091944;28;20014;-31
2023/10/02 07:12:09;;;;;;;;;;;16.40;99.90;;;;;;5092195;28;19924;-31
2023/10/02 07:14:36;;;;;;;;;;;16.50;99.90;;;;;;5092057;28;19957;-31
2023/10/02 07:17:11;;;;;;;;;;;16.60;99.90;;;;;;5093271;28;20334;-31
2023/10/02 07:19:39;;;;;;;;;;;16.70;99.90;;;;;;5093355;28;19928;-31
2023/10/02 07:22:16;;;;;;;;;;;16.80;99.90;;;;;;5093400;28;19971;-31
2023/10/02 07:24:46;;;;;;;;;;;16.80;99.90;;;;;;5090091;28;19997;-33
2023/10/02 07:27:23;;;;;;;;;;;16.90;99.90;;;;;;5091263;28;20015;-30
2023/10/02 07:29:52;;;;;;;;;;;16.90;99.90;;;;;;5092242;28;19974;-31
2023/10/02 07:32:19;;;;;;;;;;;17.00;99.90;;;;;;5092844;28;19971;-31
2023/10/02 07:34:46;;;;;;;;;;;17.10;99.90;;;;;;5091313;28;20359;-31
2023/10/02 07:37:16;;;;;;;;;;;17.10;99.90;;;;;;5091359;28;19928;-33
2023/10/02 07:39:43;;;;;;;;;;;17.20;99.90;;;;;;5125487;27;20014;-31
2023/10/02 07:42:11;;;;;;;;;;;17.20;99.90;;;;;;5091726;28;19924;-32
2023/10/02 07:44:37;;;;;;;;;;;17.30;99.90;;;;;;5091751;28;20003;-32
2023/10/02 07:47:10;;;;;;;;;;;17.40;99.90;;;;;;5091966;28;20433;-31
2023/10/02 07:49:39;;;;;;;;;;;17.50;99.90;;;;;;5090303;28;19924;-31
2023/10/02 07:52:08;;;;;;;;;;;17.50;99.90;;;;;;5091290;28;19924;-31
2023/10/02 07:54:45;;;;;;;;;;;17.60;99.90;;;;;;5125520;27;20372;-31
2023/10/02 07:57:13;;;;;;;;;;;17.70;99.90;;;;;;5091594;28;19930;-32
2023/10/02 07:59:40;;;;;;;;;;;17.80;99.90;;;;;;5091665;28;20026;-32
2023/10/02 08:02:22;;;;;;;;;;;17.90;99.90;;;;;;5090686;28;20402;-33
2023/10/02 08:04:51;;;;;;;;;;;17.90;99.90;;;;;;5125506;27;19974;-33
2023/10/02 08:07:18;;;;;;;;;;;18.00;99.90;;;;;;5091357;28;19931;-31
2023/10/02 08:09:48;;;;;;;;;;;18.10;99.90;;;;;;5091129;28;19990;-32
2023/10/02 08:12:29;;;;;;;;;;;18.20;99.90;;;;;;5091445;28;19932;-31
2023/10/02 08:14:59;;;;;;;;;;;18.30;99.90;;;;;;5092436;28;20348;-31
2023/10/02 08:17:59;;;;;;;;;;;18.30;99.90;;;;;;5092086;28;19951;-31
2023/10/02 08:20:20;;;;;;;;;;;18.30;99.90;;;;;;5072077;28;19929;-34
2023/10/02 08:22:46;;;;;;;;;;;18.50;99.90;;;;;;5072199;28;19929;-32
2023/10/02 08:25:14;;;;;;;;;;;18.60;99.90;;;;;;5072279;28;19931;-31
2023/10/02 08:27:41;;;;;;;;;;;18.70;99.90;;;;;;5104354;28;19924;-31
2023/10/02 08:30:19;;;;;;;;;;;18.70;99.90;;;;;;5078627;28;19928;-32
2023/10/02 08:32:46;;;;;;;;;;;18.90;99.90;;;;;;5091310;28;19951;-31
2023/10/02 08:35:13;;;;;;;;;;;19.00;99.90;;;;;;5092386;28;19930;-32
2023/10/02 08:37:40;;;;;;;;;;;19.10;99.90;;;;;;5090957;28;19931;-31
2023/10/02 08:40:08;;;;;;;;;;;19.20;99.90;;;;;;5090908;28;19931;-32
2023/10/02 08:42:46;;;;;;;;;;;19.30;99.90;;;;;;5090616;28;19975;-30
2023/10/02 08:45:18;;;;;;;;;;;19.40;99.90;;;;;;5090469;28;20395;-31
2023/10/02 08:47:47;;;;;;;;;;;19.50;99.90;;;;;;5090985;28;19934;-32
2023/10/02 08:50:15;;;;;;;;;;;19.50;99.90;;;;;;5091071;28;19924;-32
2023/10/02 08:52:47;;;;;;;;;;;19.50;99.90;;;;;;5090924;28;19924;-31
2023/10/02 08:55:33;;;;;;;;;;;19.50;99.90;;;;;;5089767;28;20427;-32
2023/10/02 08:58:15;;;;;;;;;;;19.50;99.90;;;;;;5092137;28;20330;-32
2023/10/02 09:01:01;;;;;;;;;;;19.60;99.90;;;;;;5092230;28;19969;-32
2023/10/02 09:03:27;;;;;;;;;;;19.60;99.90;;;;;;5092179;28;19924;-31
2023/10/02 09:06:24;;;;;;;;;;;19.60;99.90;;;;;;5094025;28;19932;-32
2023/10/02 09:09:13;;;;;;;;;;;19.60;99.90;;;;;;5095534;28;19930;-31
2023/10/02 09:11:35;;;;;;;;;;;19.70;99.90;;;;;;5095468;28;19924;-32
2023/10/02 09:14:15;;;;;;;;;;;19.70;99.90;;;;;;5095558;28;19930;-34
2023/10/02 09:16:45;;;;;;;;;;;19.80;99.90;;;;;;5093853;28;19974;-32
2023/10/02 09:19:28;;;;;;;;;;;19.90;99.90;;;;;;5094546;28;20295;-31
2023/10/02 09:22:06;;;;;;;;;;;19.90;99.90;;;;;;5095555;28;19924;-32
2023/10/02 09:24:33;;;;;;;;;;;20.00;99.90;;;;;;5095400;28;19924;-33
2023/10/02 09:27:20;;;;;;;;;;;20.10;99.90;;;;;;5094423;28;19924;-31
2023/10/02 09:29:47;;;;;;;;;;;20.10;99.90;;;;;;5095127;28;19978;-32
2023/10/02 09:32:24;;;;;;;;;;;20.20;99.90;;;;;;5094173;28;20442;-31
2023/10/02 09:37:35;;;;;;;;;;;20.30;99.90;;;;;;5093246;28;19924;-32
2023/10/02 09:40:04;;;;;;;;;;;20.30;99.90;;;;;;5094227;28;19970;-31
2023/10/02 09:42:33;;;;;;;;;;;20.40;99.90;;;;;;5094051;28;19924;-32
2023/10/02 09:45:08;;;;;;;;;;;20.40;99.90;;;;;;5093996;28;19924;-32
2023/10/02 09:47:35;;;;;;;;;;;20.50;99.90;;;;;;5127852;27;19985;-33
2023/10/02 09:50:10;;;;;;;;;;;20.50;99.90;;;;;;5092360;28;19981;-32
2023/10/02 09:52:39;;;;;;;;;;;20.50;99.90;;;;;;5093772;28;19971;-31
2023/10/02 09:55:07;;;;;;;;;;;20.50;99.90;;;;;;5094835;28;19946;-33
2023/10/02 09:57:35;;;;;;;;;;;20.40;99.90;;;;;;5092365;28;20337;-31
2023/10/02 10:00:34;;;;;;;;;;;20.40;99.90;;;;;;5097558;28;19967;-31
2023/10/02 10:03:14;;;;;;;;;;;20.40;99.90;;;;;;5097687;28;20448;-32
2023/10/02 10:06:05;;;;;;;;;;;20.50;99.90;;;;;;5098476;28;20070;-31
2023/10/02 10:09:18;;;;;;;;;;;20.50;99.90;;;;;;5089981;28;20751;-32
2023/10/02 10:11:34;;;;;;;;;;;20.60;99.90;;;;;;5088375;28;20053;-32
2023/10/02 10:14:04;;;;;;;;;;;20.70;99.90;;;;;;5093477;28;19928;-32
2023/10/02 10:16:38;;;;;;;;;;;20.70;99.90;;;;;;5097050;28;19975;-33
2023/10/02 10:21:57;;;;;;;;;;;20.80;99.90;;;;;;5100484;28;20507;-33
2023/10/02 10:24:33;;;;;;;;;;;20.90;99.90;;;;;;5103963;28;19924;-31
2023/10/02 10:26:59;;;;;;;;;;;20.90;99.90;;;;;;5100867;28;20391;-32
2023/10/02 10:29:41;;;;;;;;;;;20.90;99.90;;;;;;5103698;28;19981;-32
2023/10/02 10:32:23;;;;;;;;;;;20.90;99.90;;;;;;5103036;28;20395;-31
2023/10/02 10:35:15;;;;;;;;;;;21.00;99.90;;;;;;5097357;28;19930;-31
2023/10/02 10:37:42;;;;;;;;;;;21.10;99.90;;;;;;5093450;28;19923;-32
2023/10/02 10:40:41;;;;;;;;;;;21.20;99.90;;;;;;5110818;28;19993;-31
2023/10/02 10:43:00;;;;;;;;;;;21.20;99.90;;;;;;5103782;28;20322;-32
2023/10/02 10:45:29;;;;;;;;;;;21.40;99.90;;;;;;5093771;28;20081;-30
2023/10/02 10:47:58;;;;;;;;;;;21.50;99.90;;;;;;5092575;28;20376;-31
2023/10/02 10:50:29;;;;;;;;;;;21.70;99.90;;;;;;5099349;28;19924;-31
2023/10/02 10:53:26;;;;;;;;;;;21.80;99.90;;;;;;5112381;28;19935;-31
2023/10/02 10:55:47;;;;;;;;;;;21.90;99.90;;;;;;5110943;28;19924;-32
2023/10/02 10:58:14;;;;;;;;;;;22.00;99.90;;;;;;5091167;28;20360;-32
2023/10/02 11:00:41;;;;;;;;;;;22.00;99.90;;;;;;5091278;28;20429;-31
2023/10/02 11:03:13;;;;;;;;;;;22.00;99.90;;;;;;5124960;27;20304;-33
2023/10/02 11:05:41;;;;;;;;;;;22.10;99.90;;;;;;5091292;28;19928;-32
2023/10/02 11:08:23;;;;;;;;;;;22.10;99.90;;;;;;5093636;28;19977;-32
2023/10/02 11:11:06;;;;;;;;;;;22.10;99.90;;;;;;5108299;28;19928;-31
2023/10/02 11:13:50;;;;;;;;;;;22.20;99.90;;;;;;5097693;28;19924;-32
2023/10/02 11:16:23;;;;;;;;;;;22.10;99.90;;;;;;5097944;28;20265;-32
2023/10/02 11:22:14;;;;;;;;;;;22.20;99.90;;;;;;5067871;27;20257;-33
2023/10/02 11:24:41;;;;;;;;;;;22.20;99.90;;;;;;5029355;28;20012;-33
2023/10/02 11:27:08;;;;;;;;;;;22.20;99.90;;;;;;5065949;28;19929;-32
2023/10/02 11:29:40;;;;;;;;;;;22.30;99.90;;;;;;5059865;28;19932;-34
2023/10/02 11:32:21;;;;;;;;;;;22.30;99.90;;;;;;5047612;28;19991;-33
2023/10/02 11:34:48;;;;;;;;;;;22.30;99.90;;;;;;5060463;28;19924;-33
2023/10/02 11:37:16;;;;;;;;;;;22.30;99.90;;;;;;5067513;28;19925;-34
2023/10/02 11:39:44;;;;;;;;;;;22.30;99.90;;;;;;5055017;28;19940;-33
2023/10/02 11:42:10;;;;;;;;;;;22.30;99.90;;;;;;5052514;28;19925;-34
2023/10/02 11:44:39;;;;;;;;;;;22.30;99.90;;;;;;5048231;28;19936;-33
2023/10/02 11:47:09;;;;;;;;;;;22.30;99.90;;;;;;5058716;28;19925;-34
2023/10/02 11:49:36;;;;;;;;;;;22.40;99.90;;;;;;5058809;28;19961;-32
2023/10/02 11:52:03;;;;;;;;;;;22.40;99.90;;;;;;5049199;28;20376;-34
2023/10/02 11:54:36;;;;;;;;;;;22.50;99.90;;;;;;5047276;28;19987;-35
2023/10/02 11:57:08;;;;;;;;;;;22.50;99.90;;;;;;5065572;28;19933;-33
2023/10/02 11:59:35;;;;;;;;;;;22.60;99.90;;;;;;5059595;28;20384;-33
2023/10/02 12:02:02;;;;;;;;;;;22.60;99.90;;;;;;5046270;28;19929;-32
2023/10/02 12:04:30;;;;;;;;;;;22.70;99.90;;;;;;5048223;28;19925;-33
2023/10/02 12:06:57;;;;;;;;;;;22.70;99.90;;;;;;5048780;28;19925;-33
2023/10/02 12:09:24;;;;;;;;;;;22.70;99.90;;;;;;5050959;28;19929;-33
2023/10/02 12:11:52;;;;;;;;;;;22.70;99.90;;;;;;5067384;28;20023;-33
2023/10/02 12:14:19;;;;;;;;;;;22.80;99.90;;;;;;5067817;28;19928;-31
2023/10/02 12:16:45;;;;;;;;;;;22.90;99.90;;;;;;5062928;28;19937;-32
2023/10/02 12:19:15;;;;;;;;;;;22.90;99.90;;;;;;5053429;28;19934;-32
2023/10/02 12:21:41;;;;;;;;;;;23.00;99.90;;;;;;5046222;28;20289;-33
2023/10/02 12:24:08;;;;;;;;;;;23.00;99.90;;;;;;5063381;28;19929;-33
2023/10/02 12:26:35;;;;;;;;;;;23.00;99.90;;;;;;5086686;28;19931;-32
2023/10/02 12:29:03;;;;;;;;;;;23.10;99.90;;;;;;5054354;28;19929;-33
2023/10/02 12:31:30;;;;;;;;;;;23.10;99.90;;;;;;5051602;28;20266;-33
2023/10/02 12:33:57;;;;;;;;;;;23.10;99.90;;;;;;5031886;28;19932;-33
2023/10/02 12:36:26;;;;;;;;;;;23.20;99.90;;;;;;5039162;28;20377;-32
2023/10/02 12:38:53;;;;;;;;;;;23.10;99.90;;;;;;5032742;28;20388;-33
2023/10/02 12:41:20;;;;;;;;;;;23.10;99.90;;;;;;5033331;28;19925;-33
2023/10/02 12:43:47;;;;;;;;;;;23.20;99.90;;;;;;5064960;28;19979;-32
2023/10/02 12:46:16;;;;;;;;;;;23.20;99.90;;;;;;5039447;28;19924;-32
2023/10/02 12:48:43;;;;;;;;;;;23.20;99.90;;;;;;5039988;28;19928;-34
2023/10/02 12:51:10;;;;;;;;;;;23.20;99.90;;;;;;5034748;28;20400;-32
2023/10/02 12:53:37;;;;;;;;;;;23.20;99.90;;;;;;5045767;28;20263;-33
2023/10/02 12:56:05;;;;;;;;;;;23.20;99.90;;;;;;5050174;28;19925;-32
2023/10/02 12:58:31;;;;;;;;;;;23.30;99.90;;;;;;5049039;28;19935;-32
2023/10/02 13:01:00;;;;;;;;;;;23.30;99.90;;;;;;5034328;28;19987;-32
2023/10/02 13:03:29;;;;;;;;;;;23.30;99.90;;;;;;5037623;28;20616;-32
2023/10/02 13:05:57;;;;;;;;;;;23.50;99.90;;;;;;5041650;28;20373;-32
2023/10/02 13:08:24;;;;;;;;;;;23.50;99.90;;;;;;5033872;28;20000;-33
2023/10/02 13:10:51;;;;;;;;;;;23.50;99.90;;;;;;5043570;28;19978;-32
2023/10/02 13:13:18;;;;;;;;;;;23.50;99.90;;;;;;5035610;28;19995;-32
2023/10/02 13:15:44;;;;;;;;;;;23.50;99.90;;;;;;5029505;28;19975;-31
2023/10/02 13:18:13;;;;;;;;;;;23.50;99.90;;;;;;5032736;28;20294;-32
2023/10/02 13:20:43;;;;;;;;;;;23.50;99.90;;;;;;5039311;28;20336;-32
2023/10/02 13:23:09;;;;;;;;;;;23.40;99.90;;;;;;5040582;28;19925;-32
2023/10/02 13:25:36;;;;;;;;;;;23.50;99.90;;;;;;5030227;28;19925;-32
2023/10/02 13:28:03;;;;;;;;;;;23.50;99.90;;;;;;5041571;28;20003;-32
2023/10/02 13:30:30;;;;;;;;;;;23.50;99.90;;;;;;5084480;28;19925;-32
2023/10/02 13:32:57;;;;;;;;;;;23.60;99.90;;;;;;5035986;28;20007;-33
2023/10/02 13:35:23;;;;;;;;;;;23.60;99.90;;;;;;5033246;28;19979;-33
2023/10/02 13:37:52;;;;;;;;;;;23.70;99.90;;;;;;5068175;28;19971;-35
2023/10/02 13:40:31;;;;;;;;;;;23.70;99.90;;;;;;5030696;28;19939;-32
2023/10/02 13:42:58;;;;;;;;;;;23.70;99.90;;;;;;5026818;28;20014;-32
2023/10/02 13:45:25;;;;;;;;;;;23.70;99.90;;;;;;5029939;28;19940;-32
2023/10/02 13:47:53;;;;;;;;;;;23.70;99.90;;;;;;5042340;28;20364;-32
2023/10/02 13:50:21;;;;;;;;;;;23.80;99.90;;;;;;5069465;28;20280;-32
2023/10/02 13:52:51;;;;;;;;;;;23.80;99.90;;;;;;5023832;28;20308;-32
2023/10/02 13:55:23;;;;;;;;;;;23.80;99.90;;;;;;5032684;28;20293;-33
2023/10/02 13:57:50;;;;;;;;;;;23.80;99.90;;;;;;5032873;28;20003;-32
2023/10/02 14:00:19;;;;;;;;;;;23.80;99.90;;;;;;5031559;28;19995;-33
2023/10/02 14:02:47;;;;;;;;;;;23.90;99.90;;;;;;5032211;28;20023;-33
2023/10/02 14:05:14;;;;;;;;;;;23.90;99.90;;;;;;5035817;28;19925;-32
2023/10/02 14:07:41;;;;;;;;;;;23.90;99.90;;;;;;5046024;28;20305;-33
2023/10/02 14:10:10;;;;;;;;;;;23.90;99.90;;;;;;5039630;28;19932;-33
2023/10/02 14:12:42;;;;;;;;;;;23.90;99.90;;;;;;5033189;28;19932;-32
2023/10/02 14:15:10;;;;;;;;;;;23.90;99.90;;;;;;5028971;28;19996;-34
2023/10/02 14:17:36;;;;;;;;;;;23.90;99.90;;;;;;5052942;28;20436;-32
2023/10/02 14:20:05;;;;;;;;;;;23.90;99.90;;;;;;5033119;28;19925;-32
2023/10/02 14:22:33;;;;;;;;;;;23.80;99.90;;;;;;5034177;28;19951;-34
2023/10/02 14:25:00;;;;;;;;;;;23.90;99.90;;;;;;5032172;28;19929;-32
2023/10/02 14:27:27;;;;;;;;;;;23.90;99.90;;;;;;5040404;28;20020;-32
2023/10/02 14:29:55;;;;;;;;;;;23.90;99.90;;;;;;5018786;28;19929;-34
2023/10/02 14:32:21;;;;;;;;;;;23.90;99.90;;;;;;5029139;28;19928;-33
2023/10/02 14:34:48;;;;;;;;;;;23.90;99.90;;;;;;5042509;28;19929;-33
2023/10/02 14:37:15;;;;;;;;;;;23.90;99.90;;;;;;5035221;28;19983;-33
2023/10/02 14:39:42;;;;;;;;;;;23.90;99.90;;;;;;5037061;28;19940;-33
2023/10/02 14:42:11;;;;;;;;;;;23.90;99.90;;;;;;5022325;28;19984;-33
2023/10/02 14:44:38;;;;;;;;;;;23.90;99.90;;;;;;5024164;28;20397;-32
2023/10/02 14:47:06;;;;;;;;;;;23.90;99.90;;;;;;5034255;28;19932;-32
2023/10/02 14:49:33;;;;;;;;;;;23.90;99.90;;;;;;5037801;28;20278;-33
2023/10/02 14:52:00;;;;;;;;;;;23.90;99.90;;;;;;5028701;28;19925;-33
2023/10/02 14:54:28;;;;;;;;;;;23.90;99.90;;;;;;5042264;28;19932;-32